sensor_id;sensor_type;location;lat;lon;timestamp;temperature;humidity
27016;DHT22;14557;0.000;0.000;2022-09-28T00:00:05;21.60;56.20
27016;DHT22;14557;0.000;0.000;2022-09-28T00:02:31;21.50;56.20
27016;DHT22;14557;0.000;0.000;2022-09-28T00:04:57;21.50;56.20
27016;DHT22;14557;0.000;0.000;2022-09-28T00:07:23;21.50;56.20
27016;DHT22;14557;0.000;0.000;2022-09-28T00:09:48;21.50;56.30
27016;DHT22;14557;0.000;0.000;2022-09-28T00:12:14;21.50;56.30
27016;DHT22;14557;0.000;0.000;2022-09-28T00:14:39;21.50;56.20
27016;DHT22;14557;0.000;0.000;2022-09-28T00:17:06;21.50;56.30
27016;DHT22;14557;0.000;0.000;2022-09-28T00:19:32;21.40;56.20
27016;DHT22;14557;0.000;0.000;2022-09-28T00:21:58;21.40;56.20
27016;DHT22;14557;0.000;0.000;2022-09-28T00:24:24;21.40;56.10
27016;DHT22;14557;0.000;0.000;2022-09-28T00:26:50;21.40;56.10
27016;DHT22;14557;0.000;0.000;2022-09-28T00:29:20;21.40;56.10
27016;DHT22;14557;0.000;0.000;2022-09-28T00:31:47;21.40;56.10
27016;DHT22;14557;0.000;0.000;2022-09-28T00:34:13;21.40;56.10
27016;DHT22;14557;0.000;0.000;2022-09-28T00:36:42;21.40;56.20
27016;DHT22;14557;0.000;0.000;2022-09-28T00:39:07;21.40;56.20
27016;DHT22;14557;0.000;0.000;2022-09-28T00:41:33;21.30;56.10
27016;DHT22;14557;0.000;0.000;2022-09-28T00:46:44;21.30;56.00
27016;DHT22;14557;0.000;0.000;2022-09-28T00:49:10;21.30;56.00
27016;DHT22;14557;0.000;0.000;2022-09-28T00:51:40;21.30;56.00
27016;DHT22;14557;0.000;0.000;2022-09-28T00:54:06;21.30;56.00
27016;DHT22;14557;0.000;0.000;2022-09-28T00:56:32;21.30;56.00
27016;DHT22;14557;0.000;0.000;2022-09-28T00:58:59;21.20;56.00
27016;DHT22;14557;0.000;0.000;2022-09-28T01:01:26;21.20;56.00
27016;DHT22;14557;0.000;0.000;2022-09-28T01:03:52;21.20;56.00
27016;DHT22;14557;0.000;0.000;2022-09-28T01:06:20;21.20;56.10
27016;DHT22;14557;0.000;0.000;2022-09-28T01:08:47;21.20;56.10
27016;DHT22;14557;0.000;0.000;2022-09-28T01:11:15;21.20;56.10
27016;DHT22;14557;0.000;0.000;2022-09-28T01:13:40;21.10;56.10
27016;DHT22;14557;0.000;0.000;2022-09-28T01:18:58;21.10;56.10
27016;DHT22;14557;0.000;0.000;2022-09-28T01:21:26;21.10;56.10
27016;DHT22;14557;0.000;0.000;2022-09-28T01:28:59;21.00;56.00
27016;DHT22;14557;0.000;0.000;2022-09-28T01:31:29;21.00;55.90
27016;DHT22;14557;0.000;0.000;2022-09-28T01:34:12;21.00;56.00
27016;DHT22;14557;0.000;0.000;2022-09-28T01:36:44;21.00;56.00
27016;DHT22;14557;0.000;0.000;2022-09-28T01:39:12;20.90;56.50
27016;DHT22;14557;0.000;0.000;2022-09-28T01:41:39;20.90;56.00
27016;DHT22;14557;0.000;0.000;2022-09-28T01:44:07;20.90;55.90
27016;DHT22;14557;0.000;0.000;2022-09-28T01:46:41;20.90;55.90
27016;DHT22;14557;0.000;0.000;2022-09-28T01:54:08;20.90;55.90
27016;DHT22;14557;0.000;0.000;2022-09-28T01:56:41;20.90;55.90
27016;DHT22;14557;0.000;0.000;2022-09-28T02:01:43;20.80;55.90
27016;DHT22;14557;0.000;0.000;2022-09-28T02:04:16;20.80;56.50
27016;DHT22;14557;0.000;0.000;2022-09-28T02:06:46;20.80;55.80
27016;DHT22;14557;0.000;0.000;2022-09-28T02:09:15;20.80;55.80
27016;DHT22;14557;0.000;0.000;2022-09-28T02:11:44;20.80;55.80
27016;DHT22;14557;0.000;0.000;2022-09-28T02:14:11;20.80;55.90
27016;DHT22;14557;0.000;0.000;2022-09-28T02:16:39;20.80;55.90
27016;DHT22;14557;0.000;0.000;2022-09-28T02:19:09;20.80;55.90
27016;DHT22;14557;0.000;0.000;2022-09-28T02:21:43;20.80;55.90
27016;DHT22;14557;0.000;0.000;2022-09-28T02:24:13;20.80;55.90
27016;DHT22;14557;0.000;0.000;2022-09-28T02:26:40;20.70;55.80
27016;DHT22;14557;0.000;0.000;2022-09-28T02:29:07;20.70;55.90
27016;DHT22;14557;0.000;0.000;2022-09-28T02:31:33;20.70;55.80
27016;DHT22;14557;0.000;0.000;2022-09-28T02:33:59;20.70;55.90
27016;DHT22;14557;0.000;0.000;2022-09-28T02:36:25;20.70;55.80
27016;DHT22;14557;0.000;0.000;2022-09-28T02:38:51;20.70;55.90
27016;DHT22;14557;0.000;0.000;2022-09-28T02:53:33;20.60;55.90
27016;DHT22;14557;0.000;0.000;2022-09-28T03:03:52;20.50;55.90
27016;DHT22;14557;0.000;0.000;2022-09-28T03:09:21;20.50;55.90
27016;DHT22;14557;0.000;0.000;2022-09-28T03:11:50;20.50;56.00
27016;DHT22;14557;0.000;0.000;2022-09-28T03:14:16;20.50;55.90
27016;DHT22;14557;0.000;0.000;2022-09-28T03:16:42;20.50;55.90
27016;DHT22;14557;0.000;0.000;2022-09-28T03:19:09;20.50;56.00
27016;DHT22;14557;0.000;0.000;2022-09-28T03:21:35;20.50;55.90
27016;DHT22;14557;0.000;0.000;2022-09-28T03:24:01;20.50;56.00
27016;DHT22;14557;0.000;0.000;2022-09-28T03:26:29;20.50;55.90
27016;DHT22;14557;0.000;0.000;2022-09-28T03:28:55;20.40;56.00
27016;DHT22;14557;0.000;0.000;2022-09-28T03:31:21;20.50;56.00
27016;DHT22;14557;0.000;0.000;2022-09-28T03:33:47;20.40;55.90
27016;DHT22;14557;0.000;0.000;2022-09-28T03:36:13;20.40;55.90
27016;DHT22;14557;0.000;0.000;2022-09-28T03:38:39;20.40;55.80
27016;DHT22;14557;0.000;0.000;2022-09-28T03:41:05;20.40;55.70
27016;DHT22;14557;0.000;0.000;2022-09-28T03:43:31;20.40;55.70
27016;DHT22;14557;0.000;0.000;2022-09-28T03:45:58;20.40;55.60
27016;DHT22;14557;0.000;0.000;2022-09-28T03:48:25;20.40;55.60
27016;DHT22;14557;0.000;0.000;2022-09-28T03:50:51;20.40;55.80
27016;DHT22;14557;0.000;0.000;2022-09-28T03:53:17;20.30;55.70
27016;DHT22;14557;0.000;0.000;2022-09-28T03:55:42;20.30;55.60
27016;DHT22;14557;0.000;0.000;2022-09-28T03:58:08;20.30;55.70
27016;DHT22;14557;0.000;0.000;2022-09-28T04:00:33;20.30;55.70
27016;DHT22;14557;0.000;0.000;2022-09-28T04:02:59;20.30;55.60
27016;DHT22;14557;0.000;0.000;2022-09-28T04:05:24;20.30;55.60
27016;DHT22;14557;0.000;0.000;2022-09-28T04:07:50;20.30;55.70
27016;DHT22;14557;0.000;0.000;2022-09-28T04:10:18;20.30;55.70
27016;DHT22;14557;0.000;0.000;2022-09-28T04:12:43;20.30;55.50
27016;DHT22;14557;0.000;0.000;2022-09-28T04:15:10;20.20;55.50
27016;DHT22;14557;0.000;0.000;2022-09-28T04:17:35;20.30;55.60
27016;DHT22;14557;0.000;0.000;2022-09-28T04:20:01;20.20;55.50
27016;DHT22;14557;0.000;0.000;2022-09-28T04:22:27;20.20;55.50
27016;DHT22;14557;0.000;0.000;2022-09-28T04:24:53;20.20;55.50
27016;DHT22;14557;0.000;0.000;2022-09-28T04:27:19;20.20;55.50
27016;DHT22;14557;0.000;0.000;2022-09-28T04:30:03;20.20;55.50
27016;DHT22;14557;0.000;0.000;2022-09-28T04:32:28;20.20;55.50
27016;DHT22;14557;0.000;0.000;2022-09-28T04:34:54;20.20;55.50
27016;DHT22;14557;0.000;0.000;2022-09-28T04:37:20;20.20;55.60
27016;DHT22;14557;0.000;0.000;2022-09-28T04:39:45;20.20;55.60
27016;DHT22;14557;0.000;0.000;2022-09-28T04:42:11;20.20;55.50
27016;DHT22;14557;0.000;0.000;2022-09-28T04:44:37;20.20;55.50
27016;DHT22;14557;0.000;0.000;2022-09-28T04:47:02;20.20;55.50
27016;DHT22;14557;0.000;0.000;2022-09-28T04:49:28;20.20;55.50
27016;DHT22;14557;0.000;0.000;2022-09-28T04:51:53;20.20;55.50
27016;DHT22;14557;0.000;0.000;2022-09-28T04:54:19;20.20;55.60
27016;DHT22;14557;0.000;0.000;2022-09-28T04:56:45;20.20;55.60
27016;DHT22;14557;0.000;0.000;2022-09-28T04:59:10;20.20;55.60
27016;DHT22;14557;0.000;0.000;2022-09-28T05:01:37;20.20;55.60
27016;DHT22;14557;0.000;0.000;2022-09-28T05:04:03;20.10;55.40
27016;DHT22;14557;0.000;0.000;2022-09-28T05:06:29;20.10;55.60
27016;DHT22;14557;0.000;0.000;2022-09-28T05:08:55;20.10;55.50
27016;DHT22;14557;0.000;0.000;2022-09-28T05:11:21;20.10;55.30
27016;DHT22;14557;0.000;0.000;2022-09-28T05:13:47;20.10;55.30
27016;DHT22;14557;0.000;0.000;2022-09-28T05:16:14;20.10;55.50
27016;DHT22;14557;0.000;0.000;2022-09-28T05:18:40;20.10;55.60
27016;DHT22;14557;0.000;0.000;2022-09-28T05:21:09;20.10;55.40
27016;DHT22;14557;0.000;0.000;2022-09-28T05:23:35;20.10;55.50
27016;DHT22;14557;0.000;0.000;2022-09-28T05:26:01;20.10;55.50
27016;DHT22;14557;0.000;0.000;2022-09-28T05:28:27;20.10;55.50
27016;DHT22;14557;0.000;0.000;2022-09-28T05:31:00;20.10;55.30
27016;DHT22;14557;0.000;0.000;2022-09-28T05:33:26;20.00;55.30
27016;DHT22;14557;0.000;0.000;2022-09-28T05:35:51;20.00;55.30
27016;DHT22;14557;0.000;0.000;2022-09-28T05:38:17;20.00;55.30
27016;DHT22;14557;0.000;0.000;2022-09-28T05:40:42;20.00;55.30
27016;DHT22;14557;0.000;0.000;2022-09-28T05:43:08;20.00;55.10
27016;DHT22;14557;0.000;0.000;2022-09-28T05:45:34;20.00;55.20
27016;DHT22;14557;0.000;0.000;2022-09-28T05:47:59;20.00;55.20
27016;DHT22;14557;0.000;0.000;2022-09-28T05:50:25;20.00;55.30
27016;DHT22;14557;0.000;0.000;2022-09-28T05:53:00;20.00;55.10
27016;DHT22;14557;0.000;0.000;2022-09-28T05:55:26;20.00;55.40
27016;DHT22;14557;0.000;0.000;2022-09-28T05:57:52;20.00;55.40
27016;DHT22;14557;0.000;0.000;2022-09-28T06:00:17;20.00;55.00
27016;DHT22;14557;0.000;0.000;2022-09-28T06:02:43;20.00;55.20
27016;DHT22;14557;0.000;0.000;2022-09-28T06:05:09;19.90;55.30
27016;DHT22;14557;0.000;0.000;2022-09-28T06:07:34;19.90;55.30
27016;DHT22;14557;0.000;0.000;2022-09-28T06:10:00;19.90;55.30
27016;DHT22;14557;0.000;0.000;2022-09-28T06:12:26;19.90;55.20
27016;DHT22;14557;0.000;0.000;2022-09-28T06:14:52;19.90;55.20
27016;DHT22;14557;0.000;0.000;2022-09-28T06:17:18;19.90;55.40
27016;DHT22;14557;0.000;0.000;2022-09-28T06:19:43;19.90;55.50
27016;DHT22;14557;0.000;0.000;2022-09-28T06:22:09;19.90;55.40
27016;DHT22;14557;0.000;0.000;2022-09-28T06:24:35;19.90;55.50
27016;DHT22;14557;0.000;0.000;2022-09-28T06:27:00;19.90;55.50
27016;DHT22;14557;0.000;0.000;2022-09-28T06:29:26;19.90;55.30
27016;DHT22;14557;0.000;0.000;2022-09-28T06:31:51;19.80;56.20
27016;DHT22;14557;0.000;0.000;2022-09-28T06:34:17;19.80;55.50
27016;DHT22;14557;0.000;0.000;2022-09-28T06:36:43;19.80;55.40
27016;DHT22;14557;0.000;0.000;2022-09-28T06:39:08;19.80;55.60
27016;DHT22;14557;0.000;0.000;2022-09-28T06:41:34;19.80;55.40
27016;DHT22;14557;0.000;0.000;2022-09-28T06:44:00;19.80;55.60
27016;DHT22;14557;0.000;0.000;2022-09-28T06:46:27;19.80;55.50
27016;DHT22;14557;0.000;0.000;2022-09-28T06:48:54;19.80;55.70
27016;DHT22;14557;0.000;0.000;2022-09-28T06:51:20;19.70;55.60
27016;DHT22;14557;0.000;0.000;2022-09-28T06:53:46;19.70;55.60
27016;DHT22;14557;0.000;0.000;2022-09-28T06:56:11;19.70;55.70
27016;DHT22;14557;0.000;0.000;2022-09-28T06:58:37;19.70;55.60
27016;DHT22;14557;0.000;0.000;2022-09-28T07:01:03;19.70;55.60
27016;DHT22;14557;0.000;0.000;2022-09-28T07:03:28;19.80;55.70
27016;DHT22;14557;0.000;0.000;2022-09-28T07:05:54;19.70;55.60
27016;DHT22;14557;0.000;0.000;2022-09-28T07:08:21;19.70;55.70
27016;DHT22;14557;0.000;0.000;2022-09-28T07:10:51;19.70;55.70
27016;DHT22;14557;0.000;0.000;2022-09-28T07:13:21;19.70;55.70
27016;DHT22;14557;0.000;0.000;2022-09-28T07:15:48;19.70;55.70
27016;DHT22;14557;0.000;0.000;2022-09-28T07:18:17;19.70;55.80
27016;DHT22;14557;0.000;0.000;2022-09-28T07:20:43;19.70;56.50
27016;DHT22;14557;0.000;0.000;2022-09-28T07:23:09;19.80;59.40
27016;DHT22;14557;0.000;0.000;2022-09-28T07:25:35;19.90;63.00
27016;DHT22;14557;0.000;0.000;2022-09-28T07:28:05;20.00;65.60
27016;DHT22;14557;0.000;0.000;2022-09-28T07:30:31;20.10;59.80
27016;DHT22;14557;0.000;0.000;2022-09-28T07:32:58;20.10;60.00
27016;DHT22;14557;0.000;0.000;2022-09-28T07:35:24;20.20;58.50
27016;DHT22;14557;0.000;0.000;2022-09-28T07:37:59;20.20;60.20
27016;DHT22;14557;0.000;0.000;2022-09-28T07:40:26;20.30;58.40
27016;DHT22;14557;0.000;0.000;2022-09-28T07:43:10;20.40;59.70
27016;DHT22;14557;0.000;0.000;2022-09-28T07:45:37;20.50;58.20
27016;DHT22;14557;0.000;0.000;2022-09-28T07:48:03;20.50;58.30
27016;DHT22;14557;0.000;0.000;2022-09-28T07:50:29;20.50;58.50
27016;DHT22;14557;0.000;0.000;2022-09-28T07:52:55;20.40;57.70
27016;DHT22;14557;0.000;0.000;2022-09-28T07:55:20;20.30;57.50
27016;DHT22;14557;0.000;0.000;2022-09-28T07:57:46;20.30;57.40
27016;DHT22;14557;0.000;0.000;2022-09-28T08:00:12;20.20;57.20
27016;DHT22;14557;0.000;0.000;2022-09-28T08:02:38;20.20;57.10
27016;DHT22;14557;0.000;0.000;2022-09-28T08:05:04;20.20;57.70
27016;DHT22;14557;0.000;0.000;2022-09-28T08:07:30;20.20;57.50
27016;DHT22;14557;0.000;0.000;2022-09-28T08:09:56;20.20;58.40
27016;DHT22;14557;0.000;0.000;2022-09-28T08:12:22;20.20;58.50
27016;DHT22;14557;0.000;0.000;2022-09-28T08:14:47;20.30;59.90
27016;DHT22;14557;0.000;0.000;2022-09-28T08:17:13;20.30;60.60
27016;DHT22;14557;0.000;0.000;2022-09-28T08:19:40;20.30;59.40
27016;DHT22;14557;0.000;0.000;2022-09-28T08:22:24;20.30;58.70
27016;DHT22;14557;0.000;0.000;2022-09-28T08:24:49;20.40;58.60
27016;DHT22;14557;0.000;0.000;2022-09-28T08:27:15;20.40;58.00
27016;DHT22;14557;0.000;0.000;2022-09-28T08:29:41;20.40;58.10
27016;DHT22;14557;0.000;0.000;2022-09-28T08:32:07;20.40;57.90
27016;DHT22;14557;0.000;0.000;2022-09-28T08:34:36;20.50;67.20
27016;DHT22;14557;0.000;0.000;2022-09-28T08:37:03;20.50;62.80
27016;DHT22;14557;0.000;0.000;2022-09-28T08:39:28;20.50;60.20
27016;DHT22;14557;0.000;0.000;2022-09-28T08:44:20;20.40;58.50
27016;DHT22;14557;0.000;0.000;2022-09-28T08:46:49;20.40;58.00
27016;DHT22;14557;0.000;0.000;2022-09-28T08:49:17;20.40;57.80
27016;DHT22;14557;0.000;0.000;2022-09-28T08:52:02;20.30;57.70
27016;DHT22;14557;0.000;0.000;2022-09-28T08:54:43;20.30;57.70
27016;DHT22;14557;0.000;0.000;2022-09-28T09:02:08;20.30;57.30
27016;DHT22;14557;0.000;0.000;2022-09-28T09:04:37;20.30;57.40
27016;DHT22;14557;0.000;0.000;2022-09-28T09:09:38;20.30;56.90
27016;DHT22;14557;0.000;0.000;2022-09-28T09:14:53;20.40;56.70
27016;DHT22;14557;0.000;0.000;2022-09-28T09:19:53;20.40;56.30
27016;DHT22;14557;0.000;0.000;2022-09-28T09:24:54;20.40;56.20
27016;DHT22;14557;0.000;0.000;2022-09-28T09:30:12;20.50;56.40
27016;DHT22;14557;0.000;0.000;2022-09-28T09:40:31;20.40;56.10
27016;DHT22;14557;0.000;0.000;2022-09-28T09:43:27;20.40;56.10
27016;DHT22;14557;0.000;0.000;2022-09-28T09:48:27;20.40;56.00
27016;DHT22;14557;0.000;0.000;2022-09-28T09:51:39;20.40;56.10
27016;DHT22;14557;0.000;0.000;2022-09-28T09:53:48;20.40;56.00
27016;DHT22;14557;0.000;0.000;2022-09-28T09:56:23;20.40;55.90
27016;DHT22;14557;0.000;0.000;2022-09-28T09:58:50;20.40;56.00
27016;DHT22;14557;0.000;0.000;2022-09-28T10:01:18;20.40;56.00
27016;DHT22;14557;0.000;0.000;2022-09-28T10:03:46;20.40;56.10
27016;DHT22;14557;0.000;0.000;2022-09-28T10:06:19;20.30;56.10
27016;DHT22;14557;0.000;0.000;2022-09-28T10:08:48;20.30;56.10
27016;DHT22;14557;0.000;0.000;2022-09-28T10:11:21;20.30;56.00
27016;DHT22;14557;0.000;0.000;2022-09-28T10:13:50;20.30;56.20
27016;DHT22;14557;0.000;0.000;2022-09-28T10:16:16;20.30;56.10
27016;DHT22;14557;0.000;0.000;2022-09-28T10:18:43;20.30;56.00
27016;DHT22;14557;0.000;0.000;2022-09-28T10:21:12;20.30;56.10
27016;DHT22;14557;0.000;0.000;2022-09-28T10:23:38;20.30;56.10
27016;DHT22;14557;0.000;0.000;2022-09-28T10:26:12;20.30;56.20
27016;DHT22;14557;0.000;0.000;2022-09-28T10:28:41;20.20;56.10
27016;DHT22;14557;0.000;0.000;2022-09-28T10:33:54;20.20;56.10
27016;DHT22;14557;0.000;0.000;2022-09-28T10:36:21;20.30;56.10
27016;DHT22;14557;0.000;0.000;2022-09-28T10:38:50;20.20;55.90
27016;DHT22;14557;0.000;0.000;2022-09-28T10:41:16;20.20;55.80
27016;DHT22;14557;0.000;0.000;2022-09-28T10:43:51;20.20;55.80
27016;DHT22;14557;0.000;0.000;2022-09-28T10:46:31;20.30;55.90
27016;DHT22;14557;0.000;0.000;2022-09-28T10:48:58;20.20;55.90
27016;DHT22;14557;0.000;0.000;2022-09-28T10:54:09;20.30;56.00
27016;DHT22;14557;0.000;0.000;2022-09-28T10:56:37;20.30;55.90
27016;DHT22;14557;0.000;0.000;2022-09-28T10:59:23;20.30;56.00
27016;DHT22;14557;0.000;0.000;2022-09-28T11:01:53;20.20;56.00
27016;DHT22;14557;0.000;0.000;2022-09-28T11:04:20;20.30;56.00
27016;DHT22;14557;0.000;0.000;2022-09-28T11:06:47;20.30;56.10
27016;DHT22;14557;0.000;0.000;2022-09-28T11:09:30;20.40;56.00
27016;DHT22;14557;0.000;0.000;2022-09-28T11:11:56;20.40;56.70
27016;DHT22;14557;0.000;0.000;2022-09-28T11:14:35;20.60;56.40
27016;DHT22;14557;0.000;0.000;2022-09-28T11:19:46;20.70;55.80
27016;DHT22;14557;0.000;0.000;2022-09-28T11:24:50;20.60;56.60
27016;DHT22;14557;0.000;0.000;2022-09-28T11:27:20;20.60;56.50
27016;DHT22;14557;0.000;0.000;2022-09-28T11:29:51;20.60;56.40
27016;DHT22;14557;0.000;0.000;2022-09-28T11:32:20;20.60;56.30
27016;DHT22;14557;0.000;0.000;2022-09-28T11:34:46;20.50;56.10
27016;DHT22;14557;0.000;0.000;2022-09-28T11:45:11;20.50;56.00
27016;DHT22;14557;0.000;0.000;2022-09-28T11:47:47;20.50;55.90
27016;DHT22;14557;0.000;0.000;2022-09-28T11:50:27;20.60;55.80
27016;DHT22;14557;0.000;0.000;2022-09-28T11:57:47;20.60;55.70
27016;DHT22;14557;0.000;0.000;2022-09-28T12:00:19;20.60;55.70
27016;DHT22;14557;0.000;0.000;2022-09-28T12:03:10;20.60;55.70
27016;DHT22;14557;0.000;0.000;2022-09-28T12:05:39;20.60;55.70
27016;DHT22;14557;0.000;0.000;2022-09-28T12:13:16;20.60;55.60
27016;DHT22;14557;0.000;0.000;2022-09-28T12:15:49;20.60;55.70
27016;DHT22;14557;0.000;0.000;2022-09-28T12:18:21;20.60;55.80
27016;DHT22;14557;0.000;0.000;2022-09-28T12:21:50;20.60;57.10
27016;DHT22;14557;0.000;0.000;2022-09-28T12:23:43;20.60;56.60
27016;DHT22;14557;0.000;0.000;2022-09-28T12:26:22;20.60;56.20
27016;DHT22;14557;0.000;0.000;2022-09-28T12:28:50;20.70;55.90
27016;DHT22;14557;0.000;0.000;2022-09-28T12:31:24;20.80;56.00
27016;DHT22;14557;0.000;0.000;2022-09-28T12:33:52;20.80;55.90
27016;DHT22;14557;0.000;0.000;2022-09-28T12:36:29;20.80;56.00
27016;DHT22;14557;0.000;0.000;2022-09-28T12:46:36;20.90;56.20
27016;DHT22;14557;0.000;0.000;2022-09-28T12:49:15;20.90;56.20
27016;DHT22;14557;0.000;0.000;2022-09-28T12:56:51;20.90;56.20
27016;DHT22;14557;0.000;0.000;2022-09-28T13:04:50;20.90;56.20
27016;DHT22;14557;0.000;0.000;2022-09-28T13:07:28;20.90;56.20
27016;DHT22;14557;0.000;0.000;2022-09-28T13:10:23;20.90;56.20
27016;DHT22;14557;0.000;0.000;2022-09-28T13:15:25;20.90;56.20
27016;DHT22;14557;0.000;0.000;2022-09-28T13:23:34;20.90;56.10
27016;DHT22;14557;0.000;0.000;2022-09-28T13:26:05;20.90;56.10
27016;DHT22;14557;0.000;0.000;2022-09-28T13:28:34;20.90;56.10
27016;DHT22;14557;0.000;0.000;2022-09-28T13:31:01;20.90;56.20
27016;DHT22;14557;0.000;0.000;2022-09-28T13:33:29;20.90;56.30
27016;DHT22;14557;0.000;0.000;2022-09-28T13:35:55;20.90;56.30
27016;DHT22;14557;0.000;0.000;2022-09-28T13:43:43;20.90;56.30
27016;DHT22;14557;0.000;0.000;2022-09-28T13:51:28;20.90;56.30
27016;DHT22;14557;0.000;0.000;2022-09-28T13:54:00;21.00;56.40
27016;DHT22;14557;0.000;0.000;2022-09-28T13:56:35;21.00;56.40
27016;DHT22;14557;0.000;0.000;2022-09-28T13:59:11;20.90;56.50
27016;DHT22;14557;0.000;0.000;2022-09-28T14:01:43;21.00;56.30
27016;DHT22;14557;0.000;0.000;2022-09-28T14:04:12;20.90;56.20
27016;DHT22;14557;0.000;0.000;2022-09-28T14:06:50;20.90;56.10
27016;DHT22;14557;0.000;0.000;2022-09-28T14:12:02;20.90;56.10
27016;DHT22;14557;0.000;0.000;2022-09-28T14:14:29;20.90;56.10
27016;DHT22;14557;0.000;0.000;2022-09-28T14:17:33;20.90;56.80
27016;DHT22;14557;0.000;0.000;2022-09-28T14:19:54;20.90;56.20
27016;DHT22;14557;0.000;0.000;2022-09-28T14:22:26;20.90;56.20
27016;DHT22;14557;0.000;0.000;2022-09-28T14:25:01;20.90;56.20
27016;DHT22;14557;0.000;0.000;2022-09-28T14:27:38;20.90;56.20
27016;DHT22;14557;0.000;0.000;2022-09-28T14:30:14;20.90;56.30
27016;DHT22;14557;0.000;0.000;2022-09-28T14:32:41;20.90;56.30
27016;DHT22;14557;0.000;0.000;2022-09-28T14:35:47;20.90;56.20
27016;DHT22;14557;0.000;0.000;2022-09-28T14:38:03;20.90;56.20
27016;DHT22;14557;0.000;0.000;2022-09-28T14:48:45;20.90;56.40
27016;DHT22;14557;0.000;0.000;2022-09-28T14:54:05;20.80;56.50
27016;DHT22;14557;0.000;0.000;2022-09-28T14:59:19;20.80;56.60
27016;DHT22;14557;0.000;0.000;2022-09-28T15:01:46;20.80;56.60
27016;DHT22;14557;0.000;0.000;2022-09-28T15:04:14;20.80;56.80
27016;DHT22;14557;0.000;0.000;2022-09-28T15:06:44;20.80;56.80
27016;DHT22;14557;0.000;0.000;2022-09-28T15:11:51;20.80;56.70
27016;DHT22;14557;0.000;0.000;2022-09-28T15:14:19;20.80;56.60
27016;DHT22;14557;0.000;0.000;2022-09-28T15:16:45;20.80;56.80
27016;DHT22;14557;0.000;0.000;2022-09-28T15:22:03;20.80;56.80
27016;DHT22;14557;0.000;0.000;2022-09-28T15:24:38;20.80;57.00
27016;DHT22;14557;0.000;0.000;2022-09-28T15:27:14;20.80;56.90
27016;DHT22;14557;0.000;0.000;2022-09-28T15:29:40;20.80;56.80
27016;DHT22;14557;0.000;0.000;2022-09-28T15:32:21;20.90;57.00
27016;DHT22;14557;0.000;0.000;2022-09-28T15:34:47;20.90;57.10
27016;DHT22;14557;0.000;0.000;2022-09-28T15:37:36;20.80;57.10
27016;DHT22;14557;0.000;0.000;2022-09-28T15:40:07;20.80;58.40
27016;DHT22;14557;0.000;0.000;2022-09-28T15:42:35;20.90;58.10
27016;DHT22;14557;0.000;0.000;2022-09-28T15:47:33;20.90;58.00
27016;DHT22;14557;0.000;0.000;2022-09-28T15:50:00;20.90;58.00
27016;DHT22;14557;0.000;0.000;2022-09-28T15:54:52;20.90;58.50
27016;DHT22;14557;0.000;0.000;2022-09-28T15:57:32;20.90;58.10
27016;DHT22;14557;0.000;0.000;2022-09-28T15:59:58;20.90;58.20
27016;DHT22;14557;0.000;0.000;2022-09-28T16:02:25;20.90;58.30
27016;DHT22;14557;0.000;0.000;2022-09-28T16:04:51;21.00;65.40
27016;DHT22;14557;0.000;0.000;2022-09-28T16:12:45;21.10;63.50
27016;DHT22;14557;0.000;0.000;2022-09-28T16:17:47;21.10;61.60
27016;DHT22;14557;0.000;0.000;2022-09-28T16:20:34;21.10;61.00
27016;DHT22;14557;0.000;0.000;2022-09-28T16:23:07;21.10;60.50
27016;DHT22;14557;0.000;0.000;2022-09-28T16:25:34;21.10;60.00
27016;DHT22;14557;0.000;0.000;2022-09-28T16:28:01;21.20;60.10
27016;DHT22;14557;0.000;0.000;2022-09-28T16:30:28;21.10;59.80
27016;DHT22;14557;0.000;0.000;2022-09-28T16:33:25;21.10;59.50
27016;DHT22;14557;0.000;0.000;2022-09-28T16:35:49;21.10;59.40
27016;DHT22;14557;0.000;0.000;2022-09-28T16:38:15;21.10;59.10
27016;DHT22;14557;0.000;0.000;2022-09-28T16:40:50;21.10;59.00
27016;DHT22;14557;0.000;0.000;2022-09-28T16:43:26;21.10;58.80
27016;DHT22;14557;0.000;0.000;2022-09-28T16:45:53;21.10;58.70
27016;DHT22;14557;0.000;0.000;2022-09-28T16:48:24;21.10;58.70
27016;DHT22;14557;0.000;0.000;2022-09-28T16:50:50;21.10;58.90
27016;DHT22;14557;0.000;0.000;2022-09-28T16:53:16;21.10;59.00
27016;DHT22;14557;0.000;0.000;2022-09-28T16:56:01;21.10;58.60
27016;DHT22;14557;0.000;0.000;2022-09-28T16:58:27;21.10;58.60
27016;DHT22;14557;0.000;0.000;2022-09-28T17:00:59;21.10;59.90
27016;DHT22;14557;0.000;0.000;2022-09-28T17:03:25;21.30;63.80
27016;DHT22;14557;0.000;0.000;2022-09-28T17:05:51;21.40;60.10
27016;DHT22;14557;0.000;0.000;2022-09-28T17:08:17;21.40;59.10
27016;DHT22;14557;0.000;0.000;2022-09-28T17:10:45;21.30;59.10
27016;DHT22;14557;0.000;0.000;2022-09-28T17:13:12;21.40;59.50
27016;DHT22;14557;0.000;0.000;2022-09-28T17:15:42;21.40;61.60
27016;DHT22;14557;0.000;0.000;2022-09-28T17:18:12;21.60;64.40
27016;DHT22;14557;0.000;0.000;2022-09-28T17:20:38;21.60;59.90
27016;DHT22;14557;0.000;0.000;2022-09-28T17:23:04;21.50;59.30
27016;DHT22;14557;0.000;0.000;2022-09-28T17:25:30;21.50;58.90
27016;DHT22;14557;0.000;0.000;2022-09-28T17:27:56;21.40;59.00
27016;DHT22;14557;0.000;0.000;2022-09-28T17:30:22;21.40;59.50
27016;DHT22;14557;0.000;0.000;2022-09-28T17:32:48;21.40;60.50
27016;DHT22;14557;0.000;0.000;2022-09-28T17:35:14;21.40;62.00
27016;DHT22;14557;0.000;0.000;2022-09-28T17:37:40;21.40;62.60
27016;DHT22;14557;0.000;0.000;2022-09-28T17:40:17;21.50;63.70
27016;DHT22;14557;0.000;0.000;2022-09-28T17:42:43;21.50;63.30
27016;DHT22;14557;0.000;0.000;2022-09-28T17:45:10;21.50;64.50
27016;DHT22;14557;0.000;0.000;2022-09-28T17:47:36;21.50;68.40
27016;DHT22;14557;0.000;0.000;2022-09-28T17:50:01;21.60;69.20
27016;DHT22;14557;0.000;0.000;2022-09-28T17:52:27;21.60;70.90
27016;DHT22;14557;0.000;0.000;2022-09-28T17:54:52;21.70;70.40
27016;DHT22;14557;0.000;0.000;2022-09-28T17:57:18;21.80;75.30
27016;DHT22;14557;0.000;0.000;2022-09-28T17:59:44;21.80;77.10
27016;DHT22;14557;0.000;0.000;2022-09-28T18:02:10;21.80;80.60
27016;DHT22;14557;0.000;0.000;2022-09-28T18:04:35;21.90;83.10
27016;DHT22;14557;0.000;0.000;2022-09-28T18:07:01;22.00;78.80
27016;DHT22;14557;0.000;0.000;2022-09-28T18:09:27;22.00;76.50
27016;DHT22;14557;0.000;0.000;2022-09-28T18:11:59;21.90;74.20
27016;DHT22;14557;0.000;0.000;2022-09-28T18:14:28;21.90;70.40
27016;DHT22;14557;0.000;0.000;2022-09-28T18:16:54;21.90;67.40
27016;DHT22;14557;0.000;0.000;2022-09-28T18:19:20;21.90;67.40
27016;DHT22;14557;0.000;0.000;2022-09-28T18:21:45;21.90;67.00
27016;DHT22;14557;0.000;0.000;2022-09-28T18:24:12;21.90;66.00
27016;DHT22;14557;0.000;0.000;2022-09-28T18:26:38;21.90;64.80
27016;DHT22;14557;0.000;0.000;2022-09-28T18:29:03;21.90;64.00
27016;DHT22;14557;0.000;0.000;2022-09-28T18:31:29;21.90;64.00
27016;DHT22;14557;0.000;0.000;2022-09-28T18:33:57;21.90;64.00
27016;DHT22;14557;0.000;0.000;2022-09-28T18:36:29;21.90;63.80
27016;DHT22;14557;0.000;0.000;2022-09-28T18:38:55;21.90;63.10
27016;DHT22;14557;0.000;0.000;2022-09-28T18:41:21;21.90;62.70
27016;DHT22;14557;0.000;0.000;2022-09-28T18:43:48;21.90;62.40
27016;DHT22;14557;0.000;0.000;2022-09-28T18:46:13;21.90;61.50